sensor_id;sensor_type;location;lat;lon;timestamp;P1;durP1;ratioP1;P2;durP2;ratioP2
8050;SDS011;4068;42.158;24.732;2022-10-15T00:01:39;14.85;;;10.48;;
8050;SDS011;4068;42.158;24.732;2022-10-15T00:04:04;16.08;;;11.32;;
8050;SDS011;4068;42.158;24.732;2022-10-15T00:06:30;12.68;;;10.32;;
8050;SDS011;4068;42.158;24.732;2022-10-15T00:08:56;15.82;;;11.20;;
8050;SDS011;4068;42.158;24.732;2022-10-15T00:11:22;13.07;;;10.73;;
8050;SDS011;4068;42.158;24.732;2022-10-15T00:13:53;12.57;;;9.75;;
8050;SDS011;4068;42.158;24.732;2022-10-15T00:16:22;14.25;;;10.70;;
8050;SDS011;4068;42.158;24.732;2022-10-15T00:18:50;12.27;;;10.30;;
8050;SDS011;4068;42.158;24.732;2022-10-15T00:21:17;12.77;;;10.35;;
8050;SDS011;4068;42.158;24.732;2022-10-15T00:23:44;13.55;;;10.38;;
8050;SDS011;4068;42.158;24.732;2022-10-15T00:26:11;12.60;;;9.55;;
8050;SDS011;4068;42.158;24.732;2022-10-15T00:28:38;15.27;;;10.57;;
8050;SDS011;4068;42.158;24.732;2022-10-15T00:31:08;14.18;;;9.52;;
8050;SDS011;4068;42.158;24.732;2022-10-15T00:33:35;14.20;;;9.32;;
8050;SDS011;4068;42.158;24.732;2022-10-15T00:36:11;15.93;;;10.18;;
8050;SDS011;4068;42.158;24.732;2022-10-15T00:38:38;12.82;;;9.05;;
8050;SDS011;4068;42.158;24.732;2022-10-15T00:41:04;12.82;;;9.88;;
8050;SDS011;4068;42.158;24.732;2022-10-15T00:43:42;12.85;;;9.77;;
8050;SDS011;4068;42.158;24.732;2022-10-15T00:46:23;12.40;;;9.63;;
8050;SDS011;4068;42.158;24.732;2022-10-15T00:49:00;12.20;;;9.52;;
8050;SDS011;4068;42.158;24.732;2022-10-15T00:51:32;13.27;;;9.77;;
8050;SDS011;4068;42.158;24.732;2022-10-15T00:54:04;12.65;;;10.65;;
8050;SDS011;4068;42.158;24.732;2022-10-15T00:56:30;10.52;;;9.00;;
8050;SDS011;4068;42.158;24.732;2022-10-15T00:58:57;12.70;;;10.15;;
8050;SDS011;4068;42.158;24.732;2022-10-15T01:01:24;13.05;;;10.30;;
8050;SDS011;4068;42.158;24.732;2022-10-15T01:03:50;12.30;;;10.05;;
8050;SDS011;4068;42.158;24.732;2022-10-15T01:06:17;13.40;;;9.65;;
8050;SDS011;4068;42.158;24.732;2022-10-15T01:08:42;12.15;;;10.30;;
8050;SDS011;4068;42.158;24.732;2022-10-15T01:11:12;14.88;;;10.32;;
8050;SDS011;4068;42.158;24.732;2022-10-15T01:16:39;14.73;;;10.13;;
8050;SDS011;4068;42.158;24.732;2022-10-15T01:22:23;13.10;;;10.05;;
8050;SDS011;4068;42.158;24.732;2022-10-15T01:27:52;12.85;;;9.95;;
8050;SDS011;4068;42.158;24.732;2022-10-15T01:33:17;12.73;;;9.43;;
8050;SDS011;4068;42.158;24.732;2022-10-15T01:35:51;13.82;;;8.90;;
8050;SDS011;4068;42.158;24.732;2022-10-15T01:38:26;11.25;;;9.43;;
8050;SDS011;4068;42.158;24.732;2022-10-15T01:41:01;12.80;;;10.25;;
8050;SDS011;4068;42.158;24.732;2022-10-15T01:46:41;11.48;;;9.48;;
8050;SDS011;4068;42.158;24.732;2022-10-15T01:49:12;11.88;;;9.63;;
8050;SDS011;4068;42.158;24.732;2022-10-15T01:51:40;15.75;;;10.10;;
8050;SDS011;4068;42.158;24.732;2022-10-15T01:54:10;11.45;;;9.85;;
8050;SDS011;4068;42.158;24.732;2022-10-15T01:56:39;13.20;;;9.43;;
8050;SDS011;4068;42.158;24.732;2022-10-15T01:59:05;14.30;;;9.25;;
8050;SDS011;4068;42.158;24.732;2022-10-15T02:01:33;14.70;;;9.52;;
8050;SDS011;4068;42.158;24.732;2022-10-15T02:03:58;13.45;;;9.38;;
8050;SDS011;4068;42.158;24.732;2022-10-15T02:06:32;16.33;;;9.82;;
8050;SDS011;4068;42.158;24.732;2022-10-15T02:14:29;11.80;;;9.40;;
8050;SDS011;4068;42.158;24.732;2022-10-15T02:17:12;13.30;;;10.20;;
8050;SDS011;4068;42.158;24.732;2022-10-15T02:25:09;12.63;;;9.32;;
8050;SDS011;4068;42.158;24.732;2022-10-15T02:27:39;14.25;;;9.15;;
8050;SDS011;4068;42.158;24.732;2022-10-15T02:30:08;10.57;;;9.40;;
8050;SDS011;4068;42.158;24.732;2022-10-15T02:32:36;11.05;;;8.82;;
8050;SDS011;4068;42.158;24.732;2022-10-15T02:35:04;11.73;;;9.50;;
8050;SDS011;4068;42.158;24.732;2022-10-15T02:37:32;13.88;;;9.15;;
8050;SDS011;4068;42.158;24.732;2022-10-15T02:39:59;14.80;;;9.77;;
8050;SDS011;4068;42.158;24.732;2022-10-15T02:42:25;13.23;;;9.52;;
8050;SDS011;4068;42.158;24.732;2022-10-15T02:44:51;10.25;;;9.15;;
8050;SDS011;4068;42.158;24.732;2022-10-15T02:47:17;12.82;;;8.68;;
8050;SDS011;4068;42.158;24.732;2022-10-15T02:49:42;14.45;;;9.23;;
8050;SDS011;4068;42.158;24.732;2022-10-15T02:52:07;11.73;;;8.73;;
8050;SDS011;4068;42.158;24.732;2022-10-15T02:54:33;11.05;;;8.93;;
8050;SDS011;4068;42.158;24.732;2022-10-15T02:56:58;12.60;;;8.70;;
8050;SDS011;4068;42.158;24.732;2022-10-15T02:59:24;11.85;;;8.90;;
8050;SDS011;4068;42.158;24.732;2022-10-15T03:01:49;10.95;;;9.00;;
8050;SDS011;4068;42.158;24.732;2022-10-15T03:04:15;14.57;;;9.13;;
8050;SDS011;4068;42.158;24.732;2022-10-15T03:06:40;9.73;;;8.35;;
8050;SDS011;4068;42.158;24.732;2022-10-15T03:09:06;9.90;;;8.90;;
8050;SDS011;4068;42.158;24.732;2022-10-15T03:11:31;14.93;;;9.18;;
8050;SDS011;4068;42.158;24.732;2022-10-15T03:13:57;12.27;;;9.25;;
8050;SDS011;4068;42.158;24.732;2022-10-15T03:16:22;15.10;;;9.57;;
8050;SDS011;4068;42.158;24.732;2022-10-15T03:18:47;10.15;;;9.10;;
8050;SDS011;4068;42.158;24.732;2022-10-15T03:21:13;11.32;;;9.35;;
8050;SDS011;4068;42.158;24.732;2022-10-15T03:23:38;12.40;;;9.40;;
8050;SDS011;4068;42.158;24.732;2022-10-15T03:26:04;12.07;;;9.52;;
8050;SDS011;4068;42.158;24.732;2022-10-15T03:28:29;14.57;;;10.90;;
8050;SDS011;4068;42.158;24.732;2022-10-15T03:30:55;14.32;;;10.80;;
8050;SDS011;4068;42.158;24.732;2022-10-15T03:33:20;10.63;;;9.30;;
8050;SDS011;4068;42.158;24.732;2022-10-15T03:35:46;11.88;;;9.05;;
8050;SDS011;4068;42.158;24.732;2022-10-15T03:38:11;13.50;;;8.90;;
8050;SDS011;4068;42.158;24.732;2022-10-15T03:40:37;12.27;;;9.00;;
8050;SDS011;4068;42.158;24.732;2022-10-15T03:43:02;13.27;;;9.55;;
8050;SDS011;4068;42.158;24.732;2022-10-15T03:45:28;12.30;;;9.85;;
8050;SDS011;4068;42.158;24.732;2022-10-15T03:47:53;11.88;;;9.77;;
8050;SDS011;4068;42.158;24.732;2022-10-15T03:50:19;11.90;;;9.90;;
8050;SDS011;4068;42.158;24.732;2022-10-15T03:52:44;16.60;;;9.32;;
8050;SDS011;4068;42.158;24.732;2022-10-15T03:55:10;13.13;;;10.18;;
8050;SDS011;4068;42.158;24.732;2022-10-15T03:57:37;12.48;;;9.85;;
8050;SDS011;4068;42.158;24.732;2022-10-15T04:00:03;12.88;;;10.25;;
8050;SDS011;4068;42.158;24.732;2022-10-15T04:02:30;16.05;;;10.75;;
8050;SDS011;4068;42.158;24.732;2022-10-15T04:04:56;13.90;;;10.18;;
8050;SDS011;4068;42.158;24.732;2022-10-15T04:07:21;17.55;;;10.82;;
8050;SDS011;4068;42.158;24.732;2022-10-15T04:09:47;21.90;;;10.40;;
8050;SDS011;4068;42.158;24.732;2022-10-15T04:12:13;15.32;;;10.30;;
8050;SDS011;4068;42.158;24.732;2022-10-15T04:14:39;12.15;;;10.23;;
8050;SDS011;4068;42.158;24.732;2022-10-15T04:17:05;14.30;;;10.57;;
8050;SDS011;4068;42.158;24.732;2022-10-15T04:19:30;15.55;;;10.20;;
8050;SDS011;4068;42.158;24.732;2022-10-15T04:21:56;11.50;;;9.77;;
8050;SDS011;4068;42.158;24.732;2022-10-15T04:24:21;13.52;;;10.57;;
8050;SDS011;4068;42.158;24.732;2022-10-15T04:26:47;13.75;;;10.05;;
8050;SDS011;4068;42.158;24.732;2022-10-15T04:29:12;15.30;;;10.05;;
8050;SDS011;4068;42.158;24.732;2022-10-15T04:31:38;12.65;;;9.45;;
8050;SDS011;4068;42.158;24.732;2022-10-15T04:34:03;13.07;;;9.32;;
8050;SDS011;4068;42.158;24.732;2022-10-15T04:36:29;18.63;;;9.98;;
8050;SDS011;4068;42.158;24.732;2022-10-15T04:38:54;12.90;;;9.93;;
8050;SDS011;4068;42.158;24.732;2022-10-15T04:41:20;13.90;;;9.77;;
8050;SDS011;4068;42.158;24.732;2022-10-15T04:43:45;14.57;;;9.93;;
8050;SDS011;4068;42.158;24.732;2022-10-15T04:46:10;12.02;;;9.30;;
8050;SDS011;4068;42.158;24.732;2022-10-15T04:48:36;12.63;;;9.68;;
8050;SDS011;4068;42.158;24.732;2022-10-15T04:51:13;13.48;;;9.68;;
8050;SDS011;4068;42.158;24.732;2022-10-15T04:53:40;15.68;;;10.43;;
8050;SDS011;4068;42.158;24.732;2022-10-15T04:56:07;16.15;;;9.70;;
8050;SDS011;4068;42.158;24.732;2022-10-15T04:58:36;13.68;;;9.02;;
8050;SDS011;4068;42.158;24.732;2022-10-15T05:01:02;16.90;;;11.50;;
8050;SDS011;4068;42.158;24.732;2022-10-15T05:03:30;17.55;;;11.52;;
8050;SDS011;4068;42.158;24.732;2022-10-15T05:06:00;16.35;;;10.40;;
8050;SDS011;4068;42.158;24.732;2022-10-15T05:08:27;18.65;;;9.75;;
8050;SDS011;4068;42.158;24.732;2022-10-15T05:10:54;13.30;;;9.85;;
8050;SDS011;4068;42.158;24.732;2022-10-15T05:13:19;11.00;;;8.88;;
8050;SDS011;4068;42.158;24.732;2022-10-15T05:15:44;15.15;;;9.98;;
8050;SDS011;4068;42.158;24.732;2022-10-15T05:18:10;15.10;;;9.38;;
8050;SDS011;4068;42.158;24.732;2022-10-15T05:20:36;14.32;;;8.98;;
8050;SDS011;4068;42.158;24.732;2022-10-15T05:23:01;13.15;;;9.10;;
8050;SDS011;4068;42.158;24.732;2022-10-15T05:25:28;12.75;;;9.65;;
8050;SDS011;4068;42.158;24.732;2022-10-15T05:27:54;13.00;;;8.95;;
8050;SDS011;4068;42.158;24.732;2022-10-15T05:30:20;10.85;;;8.70;;
8050;SDS011;4068;42.158;24.732;2022-10-15T05:32:45;20.52;;;9.90;;
8050;SDS011;4068;42.158;24.732;2022-10-15T05:35:10;10.35;;;8.77;;
8050;SDS011;4068;42.158;24.732;2022-10-15T05:37:36;12.68;;;8.50;;
8050;SDS011;4068;42.158;24.732;2022-10-15T05:40:01;20.08;;;10.02;;
8050;SDS011;4068;42.158;24.732;2022-10-15T05:42:27;12.68;;;9.77;;
8050;SDS011;4068;42.158;24.732;2022-10-15T05:44:52;12.48;;;8.70;;
8050;SDS011;4068;42.158;24.732;2022-10-15T05:47:17;14.73;;;8.45;;
8050;SDS011;4068;42.158;24.732;2022-10-15T05:49:43;11.25;;;7.47;;
8050;SDS011;4068;42.158;24.732;2022-10-15T05:52:08;13.82;;;7.90;;
8050;SDS011;4068;42.158;24.732;2022-10-15T05:54:33;12.57;;;8.18;;
8050;SDS011;4068;42.158;24.732;2022-10-15T05:56:59;9.80;;;8.00;;
8050;SDS011;4068;42.158;24.732;2022-10-15T05:59:24;10.80;;;8.10;;
8050;SDS011;4068;42.158;24.732;2022-10-15T06:01:50;13.15;;;8.20;;
8050;SDS011;4068;42.158;24.732;2022-10-15T06:04:15;11.82;;;8.00;;
8050;SDS011;4068;42.158;24.732;2022-10-15T06:06:41;14.30;;;8.38;;
8050;SDS011;4068;42.158;24.732;2022-10-15T06:09:06;16.63;;;9.35;;
8050;SDS011;4068;42.158;24.732;2022-10-15T06:11:32;10.75;;;8.80;;
8050;SDS011;4068;42.158;24.732;2022-10-15T06:13:57;11.38;;;9.00;;
8050;SDS011;4068;42.158;24.732;2022-10-15T06:16:22;10.23;;;8.32;;
8050;SDS011;4068;42.158;24.732;2022-10-15T06:18:48;14.65;;;9.48;;
8050;SDS011;4068;42.158;24.732;2022-10-15T06:21:13;12.98;;;8.70;;
8050;SDS011;4068;42.158;24.732;2022-10-15T06:23:39;11.15;;;8.30;;
8050;SDS011;4068;42.158;24.732;2022-10-15T06:26:05;9.70;;;7.63;;
8050;SDS011;4068;42.158;24.732;2022-10-15T06:28:32;12.77;;;8.98;;
8050;SDS011;4068;42.158;24.732;2022-10-15T06:30:59;12.15;;;8.50;;
8050;SDS011;4068;42.158;24.732;2022-10-15T06:33:26;15.07;;;9.05;;
8050;SDS011;4068;42.158;24.732;2022-10-15T06:35:52;13.18;;;8.38;;
8050;SDS011;4068;42.158;24.732;2022-10-15T06:38:18;16.77;;;9.00;;
8050;SDS011;4068;42.158;24.732;2022-10-15T06:40:43;13.15;;;8.43;;
8050;SDS011;4068;42.158;24.732;2022-10-15T06:43:09;9.45;;;8.10;;
8050;SDS011;4068;42.158;24.732;2022-10-15T06:45:36;9.98;;;7.53;;
8050;SDS011;4068;42.158;24.732;2022-10-15T06:48:04;10.82;;;7.32;;
8050;SDS011;4068;42.158;24.732;2022-10-15T06:50:31;12.65;;;8.20;;
8050;SDS011;4068;42.158;24.732;2022-10-15T06:52:59;8.35;;;7.03;;
8050;SDS011;4068;42.158;24.732;2022-10-15T06:55:26;14.35;;;7.45;;
8050;SDS011;4068;42.158;24.732;2022-10-15T06:57:53;13.65;;;8.02;;
8050;SDS011;4068;42.158;24.732;2022-10-15T07:00:18;8.75;;;6.97;;
8050;SDS011;4068;42.158;24.732;2022-10-15T07:02:44;13.65;;;6.65;;
8050;SDS011;4068;42.158;24.732;2022-10-15T07:05:09;11.77;;;6.72;;
8050;SDS011;4068;42.158;24.732;2022-10-15T07:07:34;9.32;;;6.28;;
8050;SDS011;4068;42.158;24.732;2022-10-15T07:10:00;12.98;;;6.70;;
8050;SDS011;4068;42.158;24.732;2022-10-15T07:12:25;10.93;;;6.93;;
8050;SDS011;4068;42.158;24.732;2022-10-15T07:14:51;17.35;;;7.15;;
8050;SDS011;4068;42.158;24.732;2022-10-15T07:17:16;8.93;;;5.55;;
8050;SDS011;4068;42.158;24.732;2022-10-15T07:19:41;13.68;;;6.45;;
8050;SDS011;4068;42.158;24.732;2022-10-15T07:22:08;9.85;;;6.50;;
8050;SDS011;4068;42.158;24.732;2022-10-15T07:24:34;10.20;;;7.13;;
8050;SDS011;4068;42.158;24.732;2022-10-15T07:26:59;17.05;;;6.72;;
8050;SDS011;4068;42.158;24.732;2022-10-15T07:29:25;10.02;;;6.80;;
8050;SDS011;4068;42.158;24.732;2022-10-15T07:31:50;10.93;;;6.97;;
8050;SDS011;4068;42.158;24.732;2022-10-15T07:34:16;12.55;;;6.05;;
8050;SDS011;4068;42.158;24.732;2022-10-15T07:36:41;11.05;;;6.45;;
8050;SDS011;4068;42.158;24.732;2022-10-15T07:39:07;10.63;;;6.65;;
8050;SDS011;4068;42.158;24.732;2022-10-15T07:41:33;7.85;;;6.45;;
8050;SDS011;4068;42.158;24.732;2022-10-15T07:43:59;10.07;;;6.22;;
8050;SDS011;4068;42.158;24.732;2022-10-15T07:46:24;10.88;;;6.07;;
8050;SDS011;4068;42.158;24.732;2022-10-15T07:48:50;7.28;;;6.00;;
8050;SDS011;4068;42.158;24.732;2022-10-15T07:51:16;11.80;;;7.43;;
8050;SDS011;4068;42.158;24.732;2022-10-15T07:53:41;10.35;;;6.15;;
8050;SDS011;4068;42.158;24.732;2022-10-15T07:56:09;10.23;;;6.10;;
8050;SDS011;4068;42.158;24.732;2022-10-15T07:58:36;7.93;;;5.55;;
8050;SDS011;4068;42.158;24.732;2022-10-15T08:01:03;8.95;;;6.25;;
8050;SDS011;4068;42.158;24.732;2022-10-15T08:03:29;7.63;;;5.82;;
8050;SDS011;4068;42.158;24.732;2022-10-15T08:05:56;9.18;;;6.00;;
8050;SDS011;4068;42.158;24.732;2022-10-15T08:08:24;12.23;;;6.60;;
8050;SDS011;4068;42.158;24.732;2022-10-15T08:10:49;10.05;;;6.78;;
8050;SDS011;4068;42.158;24.732;2022-10-15T08:13:15;11.57;;;6.20;;
8050;SDS011;4068;42.158;24.732;2022-10-15T08:15:41;8.18;;;5.88;;
8050;SDS011;4068;42.158;24.732;2022-10-15T08:18:07;6.55;;;5.30;;
8050;SDS011;4068;42.158;24.732;2022-10-15T08:20:38;8.80;;;5.20;;
8050;SDS011;4068;42.158;24.732;2022-10-15T08:23:03;6.47;;;5.00;;
8050;SDS011;4068;42.158;24.732;2022-10-15T08:25:30;7.95;;;5.00;;
8050;SDS011;4068;42.158;24.732;2022-10-15T08:27:56;10.15;;;5.00;;
8050;SDS011;4068;42.158;24.732;2022-10-15T08:30:23;9.73;;;5.25;;
8050;SDS011;4068;42.158;24.732;2022-10-15T08:32:48;10.45;;;5.30;;
8050;SDS011;4068;42.158;24.732;2022-10-15T08:35:14;6.32;;;5.55;;
8050;SDS011;4068;42.158;24.732;2022-10-15T08:37:39;9.75;;;5.50;;
8050;SDS011;4068;42.158;24.732;2022-10-15T08:40:05;6.85;;;5.35;;
8050;SDS011;4068;42.158;24.732;2022-10-15T08:42:35;8.73;;;6.50;;
8050;SDS011;4068;42.158;24.732;2022-10-15T08:45:04;12.18;;;4.68;;
8050;SDS011;4068;42.158;24.732;2022-10-15T08:47:40;5.57;;;4.72;;
8050;SDS011;4068;42.158;24.732;2022-10-15T08:50:27;6.65;;;4.75;;
8050;SDS011;4068;42.158;24.732;2022-10-15T08:52:59;7.10;;;4.68;;
8050;SDS011;4068;42.158;24.732;2022-10-15T08:55:33;7.72;;;4.70;;
8050;SDS011;4068;42.158;24.732;2022-10-15T08:58:05;6.45;;;4.78;;
8050;SDS011;4068;42.158;24.732;2022-10-15T09:11:04;9.63;;;4.50;;
8050;SDS011;4068;42.158;24.732;2022-10-15T09:13:51;7.20;;;4.53;;
8050;SDS011;4068;42.158;24.732;2022-10-15T09:16:18;5.50;;;3.70;;
8050;SDS011;4068;42.158;24.732;2022-10-15T09:18:50;8.63;;;4.57;;
8050;SDS011;4068;42.158;24.732;2022-10-15T09:21:17;6.15;;;4.18;;
8050;SDS011;4068;42.158;24.732;2022-10-15T09:23:44;10.45;;;5.18;;
8050;SDS011;4068;42.158;24.732;2022-10-15T09:32:06;8.80;;;5.95;;
8050;SDS011;4068;42.158;24.732;2022-10-15T09:35:00;6.95;;;5.45;;
8050;SDS011;4068;42.158;24.732;2022-10-15T09:40:48;8.15;;;4.20;;
8050;SDS011;4068;42.158;24.732;2022-10-15T09:43:29;9.55;;;4.60;;
8050;SDS011;4068;42.158;24.732;2022-10-15T09:46:00;4.35;;;3.95;;
8050;SDS011;4068;42.158;24.732;2022-10-15T09:48:26;3.75;;;3.40;;
8050;SDS011;4068;42.158;24.732;2022-10-15T09:50:55;11.10;;;5.45;;
8050;SDS011;4068;42.158;24.732;2022-10-15T09:53:31;10.80;;;4.07;;
8050;SDS011;4068;42.158;24.732;2022-10-15T09:56:21;5.03;;;4.05;;
8050;SDS011;4068;42.158;24.732;2022-10-15T09:58:55;9.70;;;3.78;;
8050;SDS011;4068;42.158;24.732;2022-10-15T10:01:22;6.53;;;4.20;;
8050;SDS011;4068;42.158;24.732;2022-10-15T10:03:53;8.90;;;4.60;;
8050;SDS011;4068;42.158;24.732;2022-10-15T10:06:35;6.25;;;4.68;;
8050;SDS011;4068;42.158;24.732;2022-10-15T10:12:04;7.93;;;4.40;;
8050;SDS011;4068;42.158;24.732;2022-10-15T10:14:34;6.60;;;4.07;;
8050;SDS011;4068;42.158;24.732;2022-10-15T10:19:43;4.22;;;3.83;;
8050;SDS011;4068;42.158;24.732;2022-10-15T10:24:45;7.00;;;3.95;;
8050;SDS011;4068;42.158;24.732;2022-10-15T10:27:16;6.05;;;5.05;;
8050;SDS011;4068;42.158;24.732;2022-10-15T10:29:46;6.63;;;3.75;;
8050;SDS011;4068;42.158;24.732;2022-10-15T10:32:19;5.65;;;4.05;;
8050;SDS011;4068;42.158;24.732;2022-10-15T10:34:48;5.20;;;3.95;;
8050;SDS011;4068;42.158;24.732;2022-10-15T10:37:14;5.65;;;4.30;;
8050;SDS011;4068;42.158;24.732;2022-10-15T10:39:40;5.85;;;4.80;;
8050;SDS011;4068;42.158;24.732;2022-10-15T10:42:22;6.25;;;3.90;;
8050;SDS011;4068;42.158;24.732;2022-10-15T10:44:48;4.72;;;4.05;;
8050;SDS011;4068;42.158;24.732;2022-10-15T10:54:51;7.13;;;4.40;;
8050;SDS011;4068;42.158;24.732;2022-10-15T10:57:26;6.13;;;5.18;;
8050;SDS011;4068;42.158;24.732;2022-10-15T10:59:56;4.30;;;3.58;;
8050;SDS011;4068;42.158;24.732;2022-10-15T11:02:22;6.45;;;4.82;;
8050;SDS011;4068;42.158;24.732;2022-10-15T11:04:47;7.03;;;4.88;;
8050;SDS011;4068;42.158;24.732;2022-10-15T11:20:48;4.53;;;3.38;;
8050;SDS011;4068;42.158;24.732;2022-10-15T11:28:53;4.82;;;3.63;;
8050;SDS011;4068;42.158;24.732;2022-10-15T11:52:53;6.43;;;4.07;;
8050;SDS011;4068;42.158;24.732;2022-10-15T11:55:36;4.72;;;3.60;;
8050;SDS011;4068;42.158;24.732;2022-10-15T11:58:10;5.80;;;4.20;;
8050;SDS011;4068;42.158;24.732;2022-10-15T12:00:50;4.43;;;3.63;;
8050;SDS011;4068;42.158;24.732;2022-10-15T12:03:22;5.85;;;4.40;;
8050;SDS011;4068;42.158;24.732;2022-10-15T12:05:51;8.27;;;4.35;;
8050;SDS011;4068;42.158;24.732;2022-10-15T12:08:23;10.77;;;4.10;;
8050;SDS011;4068;42.158;24.732;2022-10-15T12:13:22;5.03;;;3.97;;
8050;SDS011;4068;42.158;24.732;2022-10-15T12:19:32;5.25;;;4.00;;
8050;SDS011;4068;42.158;24.732;2022-10-15T12:21:29;5.80;;;4.18;;
8050;SDS011;4068;42.158;24.732;2022-10-15T12:29:44;8.27;;;3.42;;
8050;SDS011;4068;42.158;24.732;2022-10-15T12:32:27;6.72;;;4.10;;
8050;SDS011;4068;42.158;24.732;2022-10-15T12:35:02;5.00;;;3.55;;
8050;SDS011;4068;42.158;24.732;2022-10-15T12:37:31;5.75;;;3.45;;
8050;SDS011;4068;42.158;24.732;2022-10-15T12:42:50;5.68;;;3.63;;
8050;SDS011;4068;42.158;24.732;2022-10-15T12:45:22;3.40;;;3.10;;
8050;SDS011;4068;42.158;24.732;2022-10-15T12:47:53;3.75;;;3.17;;
8050;SDS011;4068;42.158;24.732;2022-10-15T12:50:21;6.15;;;3.92;;
8050;SDS011;4068;42.158;24.732;2022-10-15T12:55:35;5.88;;;3.35;;
8050;SDS011;4068;42.158;24.732;2022-10-15T13:00:47;7.00;;;3.88;;
8050;SDS011;4068;42.158;24.732;2022-10-15T13:11:42;3.78;;;3.47;;
8050;SDS011;4068;42.158;24.732;2022-10-15T13:16:57;9.23;;;3.92;;
8050;SDS011;4068;42.158;24.732;2022-10-15T13:19:29;5.82;;;3.15;;
8050;SDS011;4068;42.158;24.732;2022-10-15T13:21:59;5.63;;;3.15;;
8050;SDS011;4068;42.158;24.732;2022-10-15T13:24:40;3.75;;;2.88;;
8050;SDS011;4068;42.158;24.732;2022-10-15T13:27:13;5.18;;;2.58;;
8050;SDS011;4068;42.158;24.732;2022-10-15T13:29:55;5.43;;;3.33;;
8050;SDS011;4068;42.158;24.732;2022-10-15T13:32:21;5.55;;;3.28;;
8050;SDS011;4068;42.158;24.732;2022-10-15T13:34:47;5.47;;;3.22;;
8050;SDS011;4068;42.158;24.732;2022-10-15T13:37:16;6.32;;;3.30;;
8050;SDS011;4068;42.158;24.732;2022-10-15T13:39:44;5.45;;;3.58;;
8050;SDS011;4068;42.158;24.732;2022-10-15T13:42:13;4.95;;;3.45;;
8050;SDS011;4068;42.158;24.732;2022-10-15T13:45:14;3.53;;;3.08;;
8050;SDS011;4068;42.158;24.732;2022-10-15T13:47:47;6.95;;;4.07;;
8050;SDS011;4068;42.158;24.732;2022-10-15T13:52:58;5.85;;;3.67;;
8050;SDS011;4068;42.158;24.732;2022-10-15T13:55:45;6.63;;;3.58;;
8050;SDS011;4068;42.158;24.732;2022-10-15T13:58:18;5.20;;;3.72;;
8050;SDS011;4068;42.158;24.732;2022-10-15T14:00:48;5.25;;;3.78;;
8050;SDS011;4068;42.158;24.732;2022-10-15T14:03:18;6.97;;;3.78;;
8050;SDS011;4068;42.158;24.732;2022-10-15T14:05:47;3.97;;;3.15;;
8050;SDS011;4068;42.158;24.732;2022-10-15T14:10:49;8.00;;;3.50;;
8050;SDS011;4068;42.158;24.732;2022-10-15T14:13:16;7.75;;;3.60;;
8050;SDS011;4068;42.158;24.732;2022-10-15T14:15:43;6.57;;;3.97;;
8050;SDS011;4068;42.158;24.732;2022-10-15T14:18:16;10.50;;;4.43;;
8050;SDS011;4068;42.158;24.732;2022-10-15T14:20:51;5.72;;;3.47;;
8050;SDS011;4068;42.158;24.732;2022-10-15T14:23:21;6.80;;;3.53;;
8050;SDS011;4068;42.158;24.732;2022-10-15T14:25:53;7.47;;;3.85;;
8050;SDS011;4068;42.158;24.732;2022-10-15T14:28:25;6.38;;;3.60;;
8050;SDS011;4068;42.158;24.732;2022-10-15T14:30:52;5.75;;;4.10;;
8050;SDS011;4068;42.158;24.732;2022-10-15T14:38:44;5.88;;;3.80;;
8050;SDS011;4068;42.158;24.732;2022-10-15T14:41:27;5.38;;;3.83;;
8050;SDS011;4068;42.158;24.732;2022-10-15T14:44:00;7.18;;;4.43;;
8050;SDS011;4068;42.158;24.732;2022-10-15T14:46:36;7.07;;;4.07;;
8050;SDS011;4068;42.158;24.732;2022-10-15T14:49:17;8.40;;;4.20;;
8050;SDS011;4068;42.158;24.732;2022-10-15T14:51:57;5.75;;;4.03;;
8050;SDS011;4068;42.158;24.732;2022-10-15T14:54:31;8.82;;;4.43;;
8050;SDS011;4068;42.158;24.732;2022-10-15T14:57:00;6.38;;;4.50;;
8050;SDS011;4068;42.158;24.732;2022-10-15T14:59:28;7.63;;;4.07;;
8050;SDS011;4068;42.158;24.732;2022-10-15T15:01:56;6.28;;;3.90;;
8050;SDS011;4068;42.158;24.732;2022-10-15T15:04:31;8.23;;;4.18;;
8050;SDS011;4068;42.158;24.732;2022-10-15T15:07:02;9.07;;;4.63;;
8050;SDS011;4068;42.158;24.732;2022-10-15T15:09:55;8.05;;;3.92;;
8050;SDS011;4068;42.158;24.732;2022-10-15T15:12:22;5.53;;;4.35;;
8050;SDS011;4068;42.158;24.732;2022-10-15T15:14:49;6.63;;;4.80;;
8050;SDS011;4068;42.158;24.732;2022-10-15T15:17:20;5.93;;;4.75;;
8050;SDS011;4068;42.158;24.732;2022-10-15T15:19:50;8.15;;;4.15;;
8050;SDS011;4068;42.158;24.732;2022-10-15T15:22:29;5.47;;;4.25;;
8050;SDS011;4068;42.158;24.732;2022-10-15T15:24:56;6.47;;;4.28;;
8050;SDS011;4068;42.158;24.732;2022-10-15T15:27:28;6.25;;;4.15;;
8050;SDS011;4068;42.158;24.732;2022-10-15T15:29:55;7.45;;;4.60;;
8050;SDS011;4068;42.158;24.732;2022-10-15T15:32:22;7.15;;;4.00;;
8050;SDS011;4068;42.158;24.732;2022-10-15T15:34:48;7.53;;;4.25;;
8050;SDS011;4068;42.158;24.732;2022-10-15T15:37:21;4.68;;;4.15;;
8050;SDS011;4068;42.158;24.732;2022-10-15T15:39:48;7.05;;;3.80;;
8050;SDS011;4068;42.158;24.732;2022-10-15T15:42:16;5.15;;;3.90;;
8050;SDS011;4068;42.158;24.732;2022-10-15T15:44:43;6.63;;;4.35;;
8050;SDS011;4068;42.158;24.732;2022-10-15T15:47:09;8.80;;;4.43;;
8050;SDS011;4068;42.158;24.732;2022-10-15T15:49:35;5.68;;;4.50;;
8050;SDS011;4068;42.158;24.732;2022-10-15T15:52:01;8.00;;;4.90;;
8050;SDS011;4068;42.158;24.732;2022-10-15T15:54:26;6.60;;;4.45;;
8050;SDS011;4068;42.158;24.732;2022-10-15T15:56:52;5.32;;;4.60;;
8050;SDS011;4068;42.158;24.732;2022-10-15T15:59:17;7.22;;;4.40;;
8050;SDS011;4068;42.158;24.732;2022-10-15T16:01:43;7.07;;;4.82;;
8050;SDS011;4068;42.158;24.732;2022-10-15T16:04:10;8.07;;;4.90;;
8050;SDS011;4068;42.158;24.732;2022-10-15T16:06:36;8.07;;;4.43;;
8050;SDS011;4068;42.158;24.732;2022-10-15T16:09:02;9.98;;;4.88;;
8050;SDS011;4068;42.158;24.732;2022-10-15T16:11:29;8.00;;;5.32;;
8050;SDS011;4068;42.158;24.732;2022-10-15T16:13:55;12.45;;;5.97;;
8050;SDS011;4068;42.158;24.732;2022-10-15T16:16:20;13.82;;;5.07;;
8050;SDS011;4068;42.158;24.732;2022-10-15T16:18:46;8.57;;;4.60;;
8050;SDS011;4068;42.158;24.732;2022-10-15T16:21:11;8.60;;;4.57;;
8050;SDS011;4068;42.158;24.732;2022-10-15T16:23:37;12.60;;;5.40;;
8050;SDS011;4068;42.158;24.732;2022-10-15T16:26:02;6.88;;;4.72;;
8050;SDS011;4068;42.158;24.732;2022-10-15T16:28:28;5.70;;;5.10;;
8050;SDS011;4068;42.158;24.732;2022-10-15T16:30:53;6.10;;;4.47;;
8050;SDS011;4068;42.158;24.732;2022-10-15T16:33:18;8.65;;;4.57;;
8050;SDS011;4068;42.158;24.732;2022-10-15T16:35:49;8.77;;;4.57;;
8050;SDS011;4068;42.158;24.732;2022-10-15T16:38:16;7.15;;;4.72;;
8050;SDS011;4068;42.158;24.732;2022-10-15T16:40:44;6.75;;;4.47;;
8050;SDS011;4068;42.158;24.732;2022-10-15T16:43:11;5.20;;;4.30;;
8050;SDS011;4068;42.158;24.732;2022-10-15T16:45:36;7.95;;;4.53;;
8050;SDS011;4068;42.158;24.732;2022-10-15T16:48:02;5.90;;;4.30;;
8050;SDS011;4068;42.158;24.732;2022-10-15T16:50:27;7.15;;;4.90;;
8050;SDS011;4068;42.158;24.732;2022-10-15T16:52:52;8.13;;;5.18;;
8050;SDS011;4068;42.158;24.732;2022-10-15T16:55:18;7.70;;;5.40;;
8050;SDS011;4068;42.158;24.732;2022-10-15T16:57:44;9.43;;;6.30;;
8050;SDS011;4068;42.158;24.732;2022-10-15T17:00:09;7.70;;;5.18;;
8050;SDS011;4068;42.158;24.732;2022-10-15T17:02:35;7.72;;;5.03;;
8050;SDS011;4068;42.158;24.732;2022-10-15T17:05:02;9.38;;;5.68;;
8050;SDS011;4068;42.158;24.732;2022-10-15T17:07:27;9.27;;;6.38;;
8050;SDS011;4068;42.158;24.732;2022-10-15T17:09:53;12.73;;;6.57;;
8050;SDS011;4068;42.158;24.732;2022-10-15T17:12:18;10.23;;;6.40;;
8050;SDS011;4068;42.158;24.732;2022-10-15T17:14:48;10.20;;;5.38;;
8050;SDS011;4068;42.158;24.732;2022-10-15T17:17:16;9.85;;;5.68;;
8050;SDS011;4068;42.158;24.732;2022-10-15T17:19:42;8.90;;;5.60;;
8050;SDS011;4068;42.158;24.732;2022-10-15T17:22:08;9.38;;;5.90;;
8050;SDS011;4068;42.158;24.732;2022-10-15T17:24:33;7.75;;;5.60;;